Time;durP1;ratioP1;P1;durP2;ratioP2;P2;SDS_P1;SDS_P2;PMS_P1;PMS_P2;Temp;Humidity;BMP_temperature;BMP_pressure;BME280_temperature;BME280_humidity;BME280_pressure;Samples;Min_cycle;Max_cycle;Signal;HPM_P1;HPM_P2
2021/11/16 00:03:10;;;;;;;17.57;12.70;;;;;;;10.87;57.14;101587.86;2413243;82;25863;-77
2021/11/16 00:06:47;;;;;;;;;;;;;;;;;;;;;
2021/11/16 00:10:05;;;;;;;16.05;12.70;;;;;;;10.84;57.12;101576.88;2401497;81;25615;-77
2021/11/16 00:13:35;;;;;;;16.90;12.78;;;;;;;10.82;57.10;101573.72;2405380;80;25631;-77
2021/11/16 00:16:56;;;;;;;18.35;12.53;;;;;;;10.79;57.07;101571.87;2412098;82;25649;-77
2021/11/16 00:20:17;;;;;;;17.67;12.85;;;;;;;10.80;57.04;101573.67;2413242;80;26263;-77
2021/11/16 00:23:40;;;;;;;19.57;13.13;;;;;;;10.81;57.04;101575.86;2413189;80;25922;-77
2021/11/16 00:27:01;;;;;;;20.65;14.33;;;;;;;10.81;57.01;101574.14;2413079;80;25667;-77
2021/11/16 00:30:22;;;;;;;18.87;13.05;;;;;;;10.80;56.96;101565.84;2381309;80;29722;-77
2021/11/16 00:33:43;;;;;;;19.20;13.08;;;;;;;10.81;56.93;101558.91;2413393;82;30768;-78
2021/11/16 00:37:07;;;;;;;16.35;12.55;;;;;;;10.80;56.90;101554.11;2412768;82;25729;-78
2021/11/16 00:40:28;;;;;;;17.77;13.38;;;;;;;10.78;56.87;101547.92;2413182;82;25679;-78
2021/11/16 00:43:51;;;;;;;15.70;13.28;;;;;;;10.81;56.85;101553.69;2413226;82;30981;-78
2021/11/16 00:47:13;;;;;;;18.30;12.93;;;;;;;10.81;56.82;101546.75;2413179;80;25666;-78
2021/11/16 00:50:37;;;;;;;17.87;13.65;;;;;;;10.82;56.80;101544.61;2413602;82;25872;-77
2021/11/16 00:53:59;;;;;;;16.48;13.03;;;;;;;10.82;56.80;101535.47;2413366;80;25665;-78
2021/11/16 00:57:20;;;;;;;19.23;13.35;;;;;;;10.83;56.80;101539.89;2413550;80;25713;-78
2021/11/16 01:00:43;;;;;;;20.52;13.70;;;;;;;10.83;56.75;101531.14;2419420;80;25715;-78
2021/11/16 01:04:07;;;;;;;18.05;12.37;;;;;;;10.85;56.74;101538.63;2425325;81;25634;-78
2021/11/16 01:07:31;;;;;;;18.45;13.55;;;;;;;10.85;56.70;101535.60;2425188;81;25816;-77
2021/11/16 01:10:55;;;;;;;18.25;13.75;;;;;;;10.85;56.67;101532.11;2424894;80;25690;-78
2021/11/16 01:14:16;;;;;;;21.25;14.00;;;;;;;10.86;56.64;101533.88;2425136;80;25188;-78
2021/11/16 01:17:38;;;;;;;19.27;13.65;;;;;;;10.87;56.62;101540.48;2425222;80;25654;-78
2021/11/16 01:20:59;;;;;;;17.25;13.45;;;;;;;10.87;56.59;101532.66;2425175;81;25737;-77
2021/11/16 01:24:20;;;;;;;18.92;13.85;;;;;;;10.88;56.58;101531.81;2424867;81;30145;-78
2021/11/16 01:27:41;;;;;;;17.02;12.68;;;;;;;10.90;56.55;101519.23;2443655;80;25222;-76
2021/11/16 01:31:05;;;;;;;17.65;13.43;;;;;;;10.89;56.55;101514.44;2468323;79;25686;-78
2021/11/16 01:34:29;;;;;;;20.08;13.08;;;;;;;10.90;56.54;101503.58;2468774;80;25656;-77
2021/11/16 01:37:48;;;;;;;21.17;14.35;;;;;;;10.90;56.54;101511.02;2468321;80;25810;-77
2021/11/16 01:41:11;;;;;;;21.48;13.45;;;;;;;10.91;56.47;101510.61;2468747;79;30474;-77
2021/11/16 01:44:32;;;;;;;17.73;13.03;;;;;;;10.91;56.46;101503.66;2468545;80;25494;-78
2021/11/16 01:47:54;;;;;;;20.32;12.68;;;;;;;10.90;56.43;101497.98;2469086;80;25587;-76
2021/11/16 01:51:20;;;;;;;20.80;13.08;;;;;;;10.90;56.40;101479.72;2468800;80;25605;-77
2021/11/16 01:54:41;;;;;;;17.95;12.93;;;;;;;10.90;56.40;101476.19;2468824;79;25685;-76
2021/11/16 01:58:02;;;;;;;20.07;15.13;;;;;;;10.90;56.38;101477.11;2468827;80;30984;-78
2021/11/16 02:01:23;;;;;;;16.62;13.00;;;;;;;10.90;56.38;101466.67;2462613;79;25811;-78
2021/11/16 02:04:44;;;;;;;18.20;14.23;;;;;;;10.90;56.37;101477.11;2460585;79;28980;-78
2021/11/16 02:08:06;;;;;;;20.95;14.43;;;;;;;10.90;56.35;101455.31;2460636;79;25672;-78
2021/11/16 02:11:27;;;;;;;14.30;12.60;;;;;;;10.90;56.34;101451.02;2460308;79;25672;-78
2021/11/16 02:14:50;;;;;;;20.92;14.15;;;;;;;10.91;56.33;101447.98;2460137;80;25637;-78
2021/11/16 02:18:12;;;;;;;16.90;13.00;;;;;;;10.90;56.33;101443.19;2460257;79;25156;-78
2021/11/16 02:21:34;;;;;;;17.48;13.95;;;;;;;10.91;56.31;101438.86;2460337;79;25640;-77
2021/11/16 02:24:55;;;;;;;20.25;13.28;;;;;;;10.91;56.29;101438.44;2460575;80;25665;-78
2021/11/16 02:28:19;;;;;;;15.08;13.05;;;;;;;10.92;56.25;101440.63;2460317;79;30888;-77
2021/11/16 02:31:43;;;;;;;20.32;13.10;;;;;;;10.91;56.26;101437.13;2459787;79;25660;-77
2021/11/16 02:35:07;;;;;;;21.65;15.93;;;;;;;10.91;56.26;101437.55;2460268;79;25966;-78
2021/11/16 02:38:28;;;;;;;21.17;14.28;;;;;;;10.91;56.25;101437.13;2460509;79;25585;-77
2021/11/16 02:41:52;;;;;;;16.85;12.88;;;;;;;10.91;56.24;101427.11;2460180;80;25783;-78
2021/11/16 02:45:15;;;;;;;17.77;14.23;;;;;;;10.91;56.23;101427.11;2460281;80;26397;-78
2021/11/16 02:48:38;;;;;;;19.40;14.05;;;;;;;10.92;56.23;101431.08;2460130;80;25857;-78
2021/11/16 02:52:00;;;;;;;15.98;12.33;;;;;;;10.92;56.24;101423.67;2459761;80;26014;-78
2021/11/16 02:55:21;;;;;;;21.25;14.45;;;;;;;10.93;56.23;101415.00;2460410;79;25692;-78
2021/11/16 02:58:42;;;;;;;16.25;13.03;;;;;;;10.94;56.22;101418.11;2460454;79;30913;-78
2021/11/16 03:02:04;;;;;;;19.57;13.45;;;;;;;10.92;56.21;101410.20;2460031;80;26799;-78
2021/11/16 03:05:37;;;;;;;17.90;13.70;;;;;;;10.93;56.21;101408.48;2460268;79;25135;-78
2021/11/16 03:08:55;;;;;;;21.50;15.18;;;;;;;10.93;56.15;101395.43;2459197;79;25605;-78
2021/11/16 03:12:17;;;;;;;18.10;13.90;;;;;;;10.91;56.17;101400.61;2460201;79;25710;-78
2021/11/16 03:15:40;;;;;;;18.85;12.75;;;;;;;10.93;56.18;101404.14;2460175;79;25712;-78
2021/11/16 03:19:02;;;;;;;16.62;13.00;;;;;;;10.93;56.18;101391.52;2460592;79;25651;-79
2021/11/16 03:22:35;;;;;;;18.73;14.15;;;;;;;10.95;56.18;101400.30;2460271;79;25668;-79
2021/11/16 03:26:02;;;;;;;20.75;14.65;;;;;;;10.94;56.14;101395.51;2458989;80;25631;-79
2021/11/16 03:29:26;;;;;;;17.80;14.30;;;;;;;10.94;56.14;101394.62;2432958;80;25538;-79
2021/11/16 03:32:47;;;;;;;23.38;15.18;;;;;;;10.95;56.11;101393.78;2371705;82;25628;-79
2021/11/16 03:36:08;;;;;;;21.65;14.30;;;;;;;10.94;56.12;101394.20;2372332;83;25487;-80
2021/11/16 03:39:31;;;;;;;20.55;14.80;;;;;;;10.94;56.13;101399.84;2414135;80;30529;-79
2021/11/16 03:42:52;;;;;;;20.20;14.43;;;;;;;10.95;56.13;101395.09;2446300;80;25637;-79
2021/11/16 03:46:14;;;;;;;22.02;14.58;;;;;;;10.95;56.11;101395.09;2446248;80;25618;-79
2021/11/16 03:49:35;;;;;;;21.80;14.95;;;;;;;10.95;56.11;101391.17;2446258;80;25622;-79
2021/11/16 03:52:57;;;;;;;22.35;15.58;;;;;;;10.96;56.11;101396.86;2446128;80;25630;-79
2021/11/16 03:56:19;;;;;;;23.38;15.63;;;;;;;10.96;56.11;101389.91;2446097;80;25942;-79
2021/11/16 03:59:40;;;;;;;21.55;14.87;;;;;;;10.99;56.11;101387.84;2446050;80;25965;-79
2021/11/16 04:03:01;;;;;;;25.37;15.48;;;;;;;10.99;56.11;101382.63;2449477;80;30812;-79
2021/11/16 04:06:30;;;;;;;22.95;14.65;;;;;;;11.00;56.10;101385.70;2446837;79;25726;-78
2021/11/16 04:09:51;;;;;;;24.27;15.80;;;;;;;11.01;56.11;101386.20;2419873;80;25680;-79
2021/11/16 04:13:13;;;;;;;21.33;15.05;;;;;;;11.00;56.07;101383.09;2449904;79;31402;-78
2021/11/16 04:16:34;;;;;;;22.77;16.45;;;;;;;11.00;56.08;101389.61;2450316;80;25191;-77
2021/11/16 04:19:54;;;;;;;21.52;16.23;;;;;;;11.02;56.07;101384.05;2450236;80;31456;-78
2021/11/16 04:23:17;;;;;;;25.40;16.20;;;;;;;11.02;56.08;101378.83;2450532;80;31253;-80
2021/11/16 04:26:38;;;;;;;17.48;14.15;;;;;;;11.02;56.06;101386.23;2450394;79;25637;-80
2021/11/16 04:29:59;;;;;;;25.45;15.70;;;;;;;11.03;56.04;101377.56;2450332;80;29724;-79
2021/11/16 04:33:22;;;;;;;25.80;16.32;;;;;;;11.03;56.02;101367.12;2450075;80;26009;-78
2021/11/16 04:36:47;;;;;;;23.45;15.45;;;;;;;11.03;56.03;101371.47;2450497;80;25652;-77
2021/11/16 04:40:14;;;;;;;26.05;17.35;;;;;;;11.02;56.05;101370.58;2449676;80;25652;-79
2021/11/16 04:43:35;;;;;;;22.67;15.98;;;;;;;11.03;56.05;101372.77;2450362;80;25654;-79
2021/11/16 04:46:57;;;;;;;26.45;17.30;;;;;;;11.03;56.04;101371.47;2450194;80;30786;-77
2021/11/16 04:54:19;;;;;;;25.57;17.17;;;;;;;11.05;56.03;101380.25;2450346;80;25636;-79
2021/11/16 05:04:54;;;;;;;25.23;18.32;;;;;;;11.05;56.04;101377.22;2450866;80;25613;-76
2021/11/16 05:08:15;;;;;;;20.60;15.93;;;;;;;11.05;56.05;101375.03;2450342;80;25644;-76
2021/11/16 05:11:37;;;;;;;25.92;17.23;;;;;;;11.05;56.05;101378.53;2450305;79;25339;-77
2021/11/16 05:15:02;;;;;;;26.62;17.02;;;;;;;11.05;56.06;101377.22;2450672;80;25680;-78
2021/11/16 05:18:23;;;;;;;23.15;16.20;;;;;;;11.06;56.05;101382.02;2450117;80;25806;-77
2021/11/16 05:21:47;;;;;;;26.15;16.67;;;;;;;11.06;56.05;101385.52;2450810;80;30496;-77
2021/11/16 05:25:09;;;;;;;26.82;16.65;;;;;;;11.07;56.08;101379.91;2450506;79;25191;-76
2021/11/16 05:28:30;;;;;;;28.30;17.27;;;;;;;11.08;56.08;101386.89;2450475;80;25647;-76
2021/11/16 05:31:51;;;;;;;23.83;18.37;;;;;;;11.09;56.08;101381.72;2450421;80;25156;-76
2021/11/16 05:35:13;;;;;;;27.77;18.17;;;;;;;11.10;56.09;101378.69;2450253;80;30405;-78
2021/11/16 05:38:39;;;;;;;32.08;18.55;;;;;;;11.10;56.10;101385.21;2450503;80;25743;-77
2021/11/16 05:42:01;;;;;;;30.20;18.80;;;;;;;11.10;56.10;101379.61;2427001;80;25750;-77
2021/11/16 05:45:22;;;;;;;28.73;18.55;;;;;;;11.11;56.10;101380.06;2424483;80;25639;-78
2021/11/16 05:48:43;;;;;;;26.45;18.92;;;;;;;11.13;56.09;101378.80;2424542;81;29951;-78
2021/11/16 05:52:05;;;;;;;29.88;18.96;;;;;;;11.14;56.09;101380.99;2457470;79;30989;-78
2021/11/16 05:55:26;;;;;;;26.07;17.32;;;;;;;11.14;56.09;101384.91;2460510;79;25564;-76
2021/11/16 05:58:49;;;;;;;35.63;19.75;;;;;;;11.15;56.11;101396.73;2460560;79;25560;-79
2021/11/16 06:02:12;;;;;;;29.67;19.57;;;;;;;11.16;56.10;101390.67;2459997;80;25636;-77
2021/11/16 06:05:33;;;;;;;27.75;18.77;;;;;;;11.16;56.11;101393.27;2460157;79;25659;-78
2021/11/16 06:08:57;;;;;;;32.80;19.25;;;;;;;11.17;56.11;101395.08;2460422;79;25622;-77
2021/11/16 06:12:18;;;;;;;31.68;20.97;;;;;;;11.18;56.11;101401.19;2460174;79;25707;-79
2021/11/16 06:15:39;;;;;;;30.00;19.45;;;;;;;11.18;56.12;101405.09;2452360;79;25545;-77
2021/11/16 06:19:06;;;;;;;35.25;21.90;;;;;;;11.19;56.11;101405.14;2460257;79;25651;-77
2021/11/16 06:22:28;;;;;;;30.85;19.82;;;;;;;11.19;56.12;101399.92;2460414;80;25584;-77
2021/11/16 06:25:50;;;;;;;33.23;21.57;;;;;;;11.21;56.11;101395.66;2459343;79;25600;-77
2021/11/16 06:29:11;;;;;;;32.90;21.17;;;;;;;11.21;56.12;101395.66;2460494;79;30897;-77
2021/11/16 06:32:35;;;;;;;37.73;22.10;;;;;;;11.22;56.11;101415.70;2460292;80;31340;-77
2021/11/16 06:36:00;;;;;;;37.48;23.87;;;;;;;11.23;56.11;101404.84;2459998;79;25588;-78
2021/11/16 06:39:23;;;;;;;34.45;22.30;;;;;;;11.23;56.11;101410.94;2460383;79;25573;-81
2021/11/16 06:42:45;;;;;;;31.35;21.48;;;;;;;11.23;56.10;101407.45;2435608;80;25597;-80
2021/11/16 06:46:07;;;;;;;35.23;22.90;;;;;;;11.23;56.11;101408.33;2413552;80;25575;-79
2021/11/16 06:49:28;;;;;;;40.28;24.27;;;;;;;11.24;56.11;101409.25;2413486;81;25642;-79
2021/11/16 06:52:49;;;;;;;37.45;23.52;;;;;;;11.25;56.12;101411.02;2413600;81;25694;-76
2021/11/16 06:56:10;;;;;;;43.30;26.02;;;;;;;11.26;56.10;101411.48;2419694;80;25742;-76
2021/11/16 06:59:31;;;;;;;41.73;24.43;;;;;;;11.26;56.09;101416.28;2460089;80;25657;-76
2021/11/16 07:03:04;;;;;;;40.40;24.45;;;;;;;11.28;56.09;101415.05;2457436;79;25778;-78
2021/11/16 07:06:31;;;;;;;42.60;24.43;;;;;;;11.28;56.08;101405.91;2438101;80;26177;-77
2021/11/16 07:09:53;;;;;;;38.88;25.08;;;;;;;11.29;56.08;101399.42;2467135;79;25760;-78
2021/11/16 07:13:14;;;;;;;38.00;24.23;;;;;;;11.30;56.06;101399.01;2427651;78;26682;-77
2021/11/16 07:16:43;;;;;;;40.55;25.08;;;;;;;11.31;56.05;101392.98;2413539;81;25825;-77
2021/11/16 07:20:06;;;;;;;42.80;26.02;;;;;;;11.32;56.04;101392.13;2413656;81;25686;-75
2021/11/16 07:23:27;;;;;;;36.83;23.50;;;;;;;11.31;56.05;101391.25;2413424;82;25657;-79
2021/11/16 07:27:01;;;;;;;43.85;25.52;;;;;;;11.33;56.04;101386.95;2413465;82;25710;-76
2021/11/16 07:30:28;;;;;;;41.10;25.95;;;;;;;11.34;56.03;101386.14;2413353;82;25684;-76
2021/11/16 07:33:50;;;;;;;35.88;24.60;;;;;;;11.36;56.02;101387.48;2410783;82;25682;-76
2021/11/16 07:37:21;;;;;;;42.80;26.65;;;;;;;11.38;56.01;101375.81;2379680;82;25655;-77
2021/11/16 07:40:47;;;;;;;42.80;26.15;;;;;;;11.39;55.99;101385.41;2410701;82;25669;-76
2021/11/16 07:44:14;;;;;;;37.93;24.65;;;;;;;11.40;56.00;101370.21;2368317;82;25467;-75
2021/11/16 07:48:12;;;;;;;45.43;27.55;;;;;;;11.41;55.97;101369.41;2399495;80;25653;-78
2021/11/16 07:51:41;;;;;;;38.45;25.82;;;;;;;11.43;55.95;101370.33;2406978;82;25668;-80
2021/11/16 07:55:05;;;;;;;40.70;26.40;;;;;;;11.44;55.94;101362.95;2411134;82;25766;-78
2021/11/16 07:58:35;;;;;;;40.50;24.75;;;;;;;11.46;55.93;101362.59;2412389;82;25636;-81
2021/11/16 08:02:07;;;;;;;40.15;25.08;;;;;;;11.47;55.92;101360.45;2413129;81;25653;-77
2021/11/16 08:12:29;;;;;;;38.90;25.43;;;;;;;11.53;55.88;101351.11;2295806;84;25795;-80
2021/11/16 08:15:50;;;;;;;41.53;25.88;;;;;;;11.56;55.87;101358.17;2294644;85;26087;-80
2021/11/16 08:19:11;;;;;;;41.53;24.32;;;;;;;11.59;55.87;101345.22;2314396;84;25786;-83
2021/11/16 08:22:33;;;;;;;38.48;25.37;;;;;;;11.61;55.85;101348.80;2335832;84;30986;-79
2021/11/16 08:25:56;;;;;;;39.25;25.55;;;;;;;11.61;55.82;101340.95;2336171;84;25704;-79
2021/11/16 08:29:34;;;;;;;40.38;25.75;;;;;;;11.65;55.78;101348.06;2336201;83;26612;-79
2021/11/16 08:32:59;;;;;;;15.45;11.25;;;;;;;11.67;55.76;101342.88;2335854;84;25784;-79
2021/11/16 08:36:30;;;;;;;20.48;12.98;;;;;;;12.15;63.47;101345.37;2336223;83;25694;-79
2021/11/16 08:39:57;;;;;;;24.95;15.72;;;;;;;12.94;64.10;101341.31;2335618;83;25747;-81
2021/11/16 08:43:25;;;;;;;28.70;19.27;;;;;;;13.57;63.84;101335.25;2295071;84;25848;-84
2021/11/16 08:47:15;;;;;;;43.10;25.27;;;;;;;14.04;63.24;101327.72;2289659;86;25787;-81
2021/11/16 08:51:09;;;;;;;43.83;27.07;;;;;;;13.96;60.28;101331.87;2399844;82;25775;-80
2021/11/16 08:54:35;;;;;;;46.00;26.90;;;;;;;13.53;59.14;101326.83;2302456;84;25857;-79
2021/11/16 08:57:58;;;;;;;42.55;28.12;;;;;;;13.22;58.90;101316.80;2305309;81;25699;-80
2021/11/16 09:01:22;;;;;;;43.92;26.30;;;;;;;13.02;58.36;101319.27;2305372;84;25701;-81
2021/11/16 09:04:43;;;;;;;44.73;26.75;;;;;;;12.89;58.47;101314.53;2321019;84;25810;-83
2021/11/16 09:08:08;;;;;;;49.38;29.27;;;;;;;12.75;58.05;101309.78;2332712;84;26408;-81
2021/11/16 09:11:29;;;;;;;45.23;27.93;;;;;;;12.64;57.83;101309.89;2332288;83;25734;-80
2021/11/16 09:14:55;;;;;;;41.80;27.77;;;;;;;12.52;57.48;101304.30;2334748;83;30906;-78
2021/11/16 09:18:26;;;;;;;49.88;27.80;;;;;;;12.36;57.06;101296.83;2341874;83;25753;-84
2021/11/16 09:21:49;;;;;;;47.85;29.32;;;;;;;12.21;56.71;101291.56;2357031;83;26385;-84
2021/11/16 09:25:28;;;;;;;44.90;28.32;;;;;;;12.14;56.92;101299.17;2326865;83;25742;-84
2021/11/16 09:28:54;;;;;;;51.80;28.70;;;;;;;12.09;56.86;101299.46;2331454;84;25810;-81
2021/11/16 09:32:15;;;;;;;45.25;28.07;;;;;;;12.09;56.91;101296.84;2252356;87;26190;-83
2021/11/16 09:35:58;;;;;;;50.17;28.25;;;;;;;12.08;56.82;101294.63;2252640;87;25704;-81
2021/11/16 09:39:28;;;;;;;47.33;29.12;;;;;;;11.98;56.35;101289.55;2254404;86;25879;-81
2021/11/16 09:42:49;;;;;;;48.42;29.95;;;;;;;11.89;56.12;101284.44;2275728;84;25710;-80
2021/11/16 09:46:14;;;;;;;56.37;29.60;;;;;;;11.82;56.00;101284.63;2289707;86;25700;-73
2021/11/16 09:49:42;;;;;;;45.08;27.60;;;;;;;11.77;55.96;101300.55;2286818;86;25687;-78
2021/11/16 09:53:04;;;;;;;53.58;29.77;;;;;;;11.78;56.09;101298.00;2289020;84;25282;-75
2021/11/16 09:56:25;;;;;;;47.85;27.93;;;;;;;11.84;56.07;101297.33;2289136;86;25890;-77
2021/11/16 09:59:51;;;;;;;43.70;28.83;;;;;;;11.88;56.11;101290.09;2289052;86;25696;-76
2021/11/16 10:03:19;;;;;;;45.67;26.97;;;;;;;11.93;56.10;101292.42;2289093;86;26421;-75
2021/11/16 10:06:40;;;;;;;50.55;29.02;;;;;;;11.96;56.15;101290.33;2296002;86;26003;-80
2021/11/16 10:10:04;;;;;;;43.80;26.80;;;;;;;11.98;56.14;101280.80;2296489;86;25599;-74
2021/11/16 10:13:29;;;;;;;43.10;28.20;;;;;;;11.98;56.15;101280.80;2296596;86;25857;-80
2021/11/16 10:16:52;;;;;;;44.05;26.85;;;;;;;12.00;56.15;101281.31;2298402;86;26008;-76
2021/11/16 10:20:20;;;;;;;43.65;27.70;;;;;;;12.02;56.19;101284.00;2297052;86;25753;-73
2021/11/16 10:23:47;;;;;;;48.40;27.77;;;;;;;12.03;56.19;101280.53;2299176;86;25710;-74
2021/11/16 10:27:34;;;;;;;40.75;26.70;;;;;;;12.03;56.14;101279.23;2305056;81;25745;-73
2021/11/16 10:30:58;;;;;;;43.68;26.12;;;;;;;12.03;56.17;101267.05;2424474;81;25664;-77
2021/11/16 10:34:18;;;;;;;45.35;27.13;;;;;;;12.05;56.16;101276.26;2410421;80;25757;-74
2021/11/16 10:37:58;;;;;;;45.92;27.48;;;;;;;12.04;56.14;101260.09;2400313;81;25672;-75
2021/11/16 10:41:23;;;;;;;46.37;26.82;;;;;;;12.04;56.15;101260.97;2422857;81;25630;-75
2021/11/16 10:45:00;;;;;;;41.75;27.02;;;;;;;12.03;56.14;101261.82;2421266;80;25608;-75
2021/11/16 10:48:23;;;;;;;44.85;28.55;;;;;;;12.02;56.14;101257.44;2426309;80;25673;-76
2021/11/16 10:51:48;;;;;;;42.20;27.25;;;;;;;12.05;56.15;101255.35;2419642;81;25713;-76
2021/11/16 10:55:11;;;;;;;48.75;29.15;;;;;;;12.05;56.14;101253.62;2416204;80;25432;-77
2021/11/16 10:58:37;;;;;;;42.85;25.45;;;;;;;12.05;56.12;101258.84;2423535;80;25829;-75
2021/11/16 11:02:00;;;;;;;42.93;27.25;;;;;;;12.08;56.17;101258.03;2416206;80;26619;-73
2021/11/16 11:05:34;;;;;;;40.35;25.85;;;;;;;12.11;56.16;101247.67;2407504;81;25647;-74
2021/11/16 11:08:58;;;;;;;38.83;25.40;;;;;;;12.14;56.15;101240.36;2407523;82;25581;-80
2021/11/16 11:12:32;;;;;;;41.18;26.25;;;;;;;12.15;56.09;101239.11;2406675;81;25959;-73
2021/11/16 11:15:52;;;;;;;37.33;24.92;;;;;;;12.17;56.12;101240.45;2435719;80;25651;-79
2021/11/16 11:19:23;;;;;;;38.63;25.60;;;;;;;12.19;56.12;101227.91;2409888;80;26249;-73
2021/11/16 11:22:44;;;;;;;38.67;24.95;;;;;;;12.22;56.10;101232.34;2406277;81;25834;-73
2021/11/16 11:26:35;;;;;;;43.52;26.12;;;;;;;12.23;56.07;101227.58;2364578;83;25643;-79
2021/11/16 11:30:00;;;;;;;39.48;24.63;;;;;;;12.26;56.00;101228.55;2417570;80;25629;-73
2021/11/16 11:33:21;;;;;;;36.15;25.20;;;;;;;12.28;55.96;101222.05;2434562;81;25661;-75
2021/11/16 11:36:41;;;;;;;38.08;24.43;;;;;;;12.30;55.93;101216.45;2414078;80;31502;-78
2021/11/16 11:40:08;;;;;;;36.00;24.77;;;;;;;12.33;55.92;101218.28;2409511;82;26249;-75
2021/11/16 11:43:30;;;;;;;42.23;23.75;;;;;;;12.34;55.90;101210.47;2418279;80;26447;-76
2021/11/16 11:47:02;;;;;;;44.08;28.05;;;;;;;12.35;55.86;101193.96;2411844;80;26387;-76
2021/11/16 11:50:41;;;;;;;54.13;27.80;;;;;;;12.26;55.32;101191.95;2421662;80;25776;-77
2021/11/16 11:54:02;;;;;;;40.38;27.45;;;;;;;12.12;55.04;101193.27;2439269;80;25664;-76
2021/11/16 11:57:34;;;;;;;44.38;26.93;;;;;;;12.02;54.92;101185.57;2444887;80;25637;-77
2021/11/16 12:01:06;;;;;;;50.48;29.05;;;;;;;11.96;54.83;101184.07;2441221;80;25681;-77
2021/11/16 12:04:29;;;;;;;45.58;27.98;;;;;;;11.87;54.78;101181.16;2446026;79;25222;-77
2021/11/16 12:07:52;;;;;;;50.67;27.20;;;;;;;11.82;54.82;101169.66;2443560;80;25596;-78
2021/11/16 12:11:16;;;;;;;47.20;27.25;;;;;;;11.81;54.81;101170.09;2417511;79;25660;-78
2021/11/16 12:14:49;;;;;;;48.00;29.77;;;;;;;11.79;54.78;101160.00;2389017;80;25646;-77
2021/11/16 12:18:14;;;;;;;41.85;25.35;;;;;;;11.74;54.74;101161.98;2409933;80;25211;-79
2021/11/16 12:21:47;;;;;;;48.85;28.83;;;;;;;11.65;54.82;101153.46;2405567;80;25805;-76
2021/11/16 12:25:36;;;;;;;54.65;29.27;;;;;;;11.64;54.90;101155.58;2410910;82;25648;-80
2021/11/16 12:29:19;;;;;;;47.53;27.50;;;;;;;11.64;54.90;101154.70;2276949;85;25730;-78
2021/11/16 12:32:52;;;;;;;54.45;28.75;;;;;;;11.61;54.92;101148.07;2277259;86;25835;-76
2021/11/16 12:36:33;;;;;;;49.40;28.47;;;;;;;11.57;54.97;101147.97;2152554;91;25736;-80
2021/11/16 12:40:07;;;;;;;51.75;26.23;;;;;;;11.61;55.22;101147.68;2133589;90;25805;-82
2021/11/16 12:43:47;;;;;;;44.55;26.73;;;;;;;11.68;55.45;101139.20;2150468;90;25782;-80
2021/11/16 12:47:11;;;;;;;45.88;26.62;;;;;;;11.72;55.62;101140.17;2139174;91;26013;-80
2021/11/16 12:50:58;;;;;;;46.75;26.90;;;;;;;11.73;55.49;101135.41;2148575;91;26563;-77
2021/11/16 12:54:26;;;;;;;45.17;26.70;;;;;;;11.71;55.40;101147.12;2171520;90;26239;-77
2021/11/16 12:57:49;;;;;;;48.23;28.38;;;;;;;11.68;55.30;101132.66;2194153;90;25252;-79
2021/11/16 13:01:40;;;;;;;51.20;28.52;;;;;;;11.70;55.24;101133.58;2195875;88;25872;-81
2021/11/16 13:05:11;;;;;;;53.35;28.38;;;;;;;11.68;55.20;101128.75;2203708;88;25657;-78
2021/11/16 13:08:32;;;;;;;51.30;27.95;;;;;;;11.66;55.19;101121.27;2211093;88;26049;-78
2021/11/16 13:11:56;;;;;;;50.25;28.73;;;;;;;11.65;55.15;101122.55;2250173;82;30925;-82
2021/11/16 13:15:42;;;;;;;47.23;26.95;;;;;;;11.61;55.20;101125.48;2359633;82;25656;-80
2021/11/16 13:19:12;;;;;;;49.93;27.07;;;;;;;11.60;55.20;101117.16;2381778;80;25659;-81
2021/11/16 13:23:04;;;;;;;55.43;29.45;;;;;;;11.57;55.26;101106.19;2429540;80;25703;-79
2021/11/16 13:26:55;;;;;;;48.80;28.25;;;;;;;11.58;55.27;101105.80;2313938;83;25959;-80
2021/11/16 13:30:21;;;;;;;49.63;28.75;;;;;;;11.56;55.28;101104.84;2234838;85;25732;-84
2021/11/16 13:33:56;;;;;;;49.85;30.57;;;;;;;11.55;55.28;101092.22;2231482;88;25771;-80
2021/11/16 13:37:28;;;;;;;46.42;28.73;;;;;;;11.54;55.32;101091.76;2231216;87;25745;-84
2021/11/16 13:40:49;;;;;;;52.27;28.92;;;;;;;11.49;55.36;101082.88;2231509;88;25846;-80
2021/11/16 13:44:24;;;;;;;49.60;28.15;;;;;;;11.50;55.40;101093.78;2205422;88;30525;-79
2021/11/16 13:47:53;;;;;;;47.95;28.75;;;;;;;11.52;55.49;101093.42;2224059;88;25731;-80
2021/11/16 13:51:22;;;;;;;50.20;30.30;;;;;;;11.56;55.66;101097.89;2233143;86;25706;-78
2021/11/16 13:54:46;;;;;;;45.33;27.50;;;;;;;11.59;55.79;101098.42;2285345;84;25843;-84
2021/11/16 13:58:12;;;;;;;49.27;27.87;;;;;;;11.60;55.94;101100.18;2324091;84;25297;-80
2021/11/16 14:01:35;;;;;;;45.67;28.62;;;;;;;11.61;56.40;101095.45;2274757;83;25838;-79
2021/11/16 14:05:06;;;;;;;48.58;29.70;;;;;;;11.66;56.65;101093.84;2371177;81;25682;-79
2021/11/16 14:08:39;;;;;;;49.90;26.85;;;;;;;11.70;56.80;101087.87;2371151;82;25644;-79
2021/11/16 14:11:59;;;;;;;47.15;27.58;;;;;;;11.73;57.05;101087.97;2455856;78;25667;-79
2021/11/16 14:15:25;;;;;;;43.60;28.10;;;;;;;11.74;57.26;101091.03;2445495;80;31061;-80
2021/11/16 14:19:03;;;;;;;42.67;25.25;;;;;;;11.76;57.19;101088.06;2411182;81;25683;-78
2021/11/16 14:22:37;;;;;;;49.95;29.02;;;;;;;11.77;57.45;101087.20;2375287;82;25674;-78
2021/11/16 14:26:06;;;;;;;42.85;27.40;;;;;;;11.80;57.64;101090.34;2380732;82;26007;-80
2021/11/16 14:29:27;;;;;;;53.20;29.05;;;;;;;11.80;57.54;101078.16;2398256;82;26408;-81
2021/11/16 14:32:49;;;;;;;45.58;28.47;;;;;;;11.80;57.38;101083.81;2400282;82;25864;-80
2021/11/16 14:36:10;;;;;;;52.90;28.60;;;;;;;11.78;57.15;101080.28;2400527;82;25764;-80
2021/11/16 14:39:33;;;;;;;48.60;28.38;;;;;;;11.77;57.03;101081.10;2400845;82;25801;-76
2021/11/16 14:42:56;;;;;;;48.38;27.45;;;;;;;11.76;57.02;101084.14;2393714;82;25997;-74
2021/11/16 14:46:22;;;;;;;41.73;27.17;;;;;;;11.78;57.08;101085.09;2388916;82;25756;-77
2021/11/16 14:53:15;;;;;;;43.05;28.35;;;;;;;11.81;57.15;101076.42;2398521;82;25703;-77
2021/11/16 14:56:43;;;;;;;43.83;27.60;;;;;;;11.82;57.13;101070.38;2393335;81;25898;-76
2021/11/16 15:00:33;;;;;;;44.90;27.13;;;;;;;11.82;57.13;101075.19;2444883;80;25607;-77
2021/11/16 15:06:31;;;;;;;46.80;30.83;;;;;;;11.89;57.30;101068.88;2464339;77;32779;-74
2021/11/16 15:10:00;;;;;;;39.18;26.77;;;;;;;11.90;57.21;101053.23;2489210;77;26255;-76
2021/11/16 15:13:23;;;;;;;45.85;27.95;;;;;;;12.02;57.04;101069.27;2481366;78;26074;-76
2021/11/16 15:16:48;;;;;;;44.65;26.95;;;;;;;12.01;57.01;101069.20;2473863;78;25252;-75
2021/11/16 15:20:14;;;;;;;44.33;27.62;;;;;;;11.99;56.94;101061.77;2475353;78;25695;-74
2021/11/16 15:23:47;;;;;;;44.40;27.25;;;;;;;11.96;56.89;101056.45;2477382;78;25693;-74
2021/11/16 15:27:21;;;;;;;47.17;27.60;;;;;;;11.95;56.85;101062.09;2503401;78;25572;-74
2021/11/16 15:30:55;;;;;;;50.55;28.23;;;;;;;11.94;56.80;101056.81;2514246;78;25673;-76
2021/11/16 15:34:18;;;;;;;41.77;26.12;;;;;;;11.91;56.77;101056.30;2517082;77;25655;-75
2021/11/16 15:37:39;;;;;;;48.38;27.70;;;;;;;11.89;56.73;101046.23;2515952;78;25657;-75
2021/11/16 15:41:33;;;;;;;44.83;27.45;;;;;;;11.89;56.69;101051.89;2514185;78;31260;-76
2021/11/16 15:45:02;;;;;;;42.65;27.52;;;;;;;11.87;56.69;101048.33;2499718;78;26461;-75
2021/11/16 15:48:34;;;;;;;43.33;26.97;;;;;;;11.87;56.66;101058.36;2461900;80;25636;-76
2021/11/16 15:59:40;;;;;;;42.10;26.57;;;;;;;11.86;56.58;101042.66;2429178;78;25621;-75
2021/11/16 16:03:14;;;;;;;45.12;28.15;;;;;;;11.85;56.55;101040.89;2427876;78;26157;-75
2021/11/16 16:06:43;;;;;;;43.50;27.32;;;;;;;11.83;56.49;101044.29;2448340;78;26007;-75
2021/11/16 16:10:05;;;;;;;42.25;26.82;;;;;;;11.82;56.46;101041.22;2456678;79;25617;-74